Time;durP1;ratioP1;P1;durP2;ratioP2;P2;SDS_P1;SDS_P2;PMS_P1;PMS_P2;Temp;Humidity;BMP_temperature;BMP_pressure;BME280_temperature;BME280_humidity;BME280_pressure;Samples;Min_cycle;Max_cycle;Signal;HPM_P1;HPM_P2
2024/01/12 00:15:42;;;;;;;37.55;17.13;;;;;;;-7.72;67.31;94778.72;5194237;22;20468;-83
2024/01/12 00:18:08;;;;;;;37.20;15.50;;;;;;;-9.21;67.37;94512.56;5108690;28;20035;-84
2024/01/12 00:20:35;;;;;;;44.38;17.92;;;;;;;-6.18;67.87;95019.06;5126741;28;20027;-83
2024/01/12 00:23:01;;;;;;;33.47;15.70;;;;;;;-9.50;67.45;94499.53;5128840;28;20031;-84
2024/01/12 00:25:26;;;;;;;35.47;17.27;;;;;;;-4.63;67.56;95273.25;5112734;28;20038;-83
2024/01/12 00:27:52;;;;;;;37.38;16.20;;;;;;;-5.49;68.51;95136.72;5110508;28;20020;-83
2024/01/12 00:30:17;;;;;;;42.22;17.30;;;;;;;-5.14;69.05;95210.22;5125334;28;20496;-86
2024/01/12 00:32:43;;;;;;;41.65;16.95;;;;;;;-7.02;69.42;94949.38;5110416;28;20047;-83
2024/01/12 00:35:08;;;;;;;38.75;16.38;;;;;;;-7.82;68.99;94778.94;5116449;27;20371;-82
2024/01/12 00:37:35;;;;;;;38.92;15.98;;;;;;;-6.36;69.27;95029.69;5122055;28;20027;-82
2024/01/12 00:40:02;;;;;;;35.30;16.00;;;;;;;-5.57;69.01;95132.41;5122580;28;20430;-81
2024/01/12 00:42:27;;;;;;;39.70;16.85;;;;;;;-4.82;68.55;95272.00;5101401;28;20390;-84
2024/01/12 00:44:53;;;;;;;39.88;16.70;;;;;;;-5.52;67.97;95181.00;5114253;28;20130;-83
2024/01/12 00:47:18;;;;;;;39.40;16.55;;;;;;;-5.13;68.35;95241.09;5109576;28;20028;-83
2024/01/12 00:49:44;;;;;;;43.03;16.05;;;;;;;-4.67;68.26;95292.72;5129405;28;20060;-82
2024/01/12 00:52:09;;;;;;;38.92;18.00;;;;;;;-5.88;68.66;95106.75;5109213;28;20090;-82
2024/01/12 00:54:35;;;;;;;41.22;17.02;;;;;;;-5.39;69.04;95193.31;5130156;28;20513;-84
2024/01/12 00:57:00;;;;;;;41.30;16.60;;;;;;;-5.05;68.62;95229.88;5121071;27;20035;-85
2024/01/12 00:59:26;;;;;;;39.22;16.35;;;;;;;-5.91;68.62;95090.78;5112960;28;20427;-82
2024/01/12 01:01:56;;;;;;;41.05;17.20;;;;;;;-4.75;68.33;95297.97;5106233;28;20066;-83
2024/01/12 01:04:22;;;;;;;34.53;14.48;;;;;;;-7.28;66.94;94902.53;5101312;28;20055;-83
2024/01/12 01:06:47;;;;;;;31.02;14.70;;;;;;;-5.26;67.52;95201.28;5109760;28;20439;-82
2024/01/12 01:09:13;;;;;;;34.67;16.25;;;;;;;-5.89;66.83;95110.31;5123664;27;20440;-82
2024/01/12 01:11:39;;;;;;;34.28;15.80;;;;;;;-5.50;66.83;95186.81;5119976;27;20019;-82
2024/01/12 01:14:04;;;;;;;33.65;14.57;;;;;;;-5.92;66.56;95133.09;5099982;28;20039;-82
2024/01/12 01:16:30;;;;;;;35.08;14.93;;;;;;;-4.94;66.61;95286.31;5099617;28;20048;-87
2024/01/12 01:18:55;;;;;;;35.42;14.48;;;;;;;-5.62;66.37;95167.53;5113775;28;20042;-87
2024/01/12 01:21:21;;;;;;;31.63;14.25;;;;;;;-5.16;66.89;95232.88;5115497;28;20053;-85
2024/01/12 01:23:46;;;;;;;33.20;13.52;;;;;;;-5.40;65.82;95191.72;5108818;28;20024;-88
2024/01/12 01:26:12;;;;;;;31.92;14.30;;;;;;;-4.98;66.14;95246.28;5102840;28;20051;-86
2024/01/12 01:28:37;;;;;;;31.55;13.63;;;;;;;-5.35;66.01;95172.16;5126528;28;20031;-87
2024/01/12 01:31:03;;;;;;;31.02;15.05;;;;;;;-4.96;64.74;95236.59;5121645;28;20560;-87
2024/01/12 01:33:29;;;;;;;30.85;13.98;;;;;;;-5.57;64.79;95118.72;5097780;28;20381;-84
2024/01/12 01:35:54;;;;;;;33.47;12.60;;;;;;;-4.79;64.69;95263.88;5098905;28;20035;-83
2024/01/12 01:38:21;;;;;;;31.10;12.23;;;;;;;-4.95;64.23;95233.00;5104852;28;20134;-84
2024/01/12 01:40:46;;;;;;;26.75;12.95;;;;;;;-5.36;65.41;95162.78;5107285;28;20532;-84
2024/01/12 01:43:12;;;;;;;31.58;13.95;;;;;;;-5.16;65.56;95207.81;5087518;28;20036;-83
2024/01/12 01:45:38;;;;;;;31.05;14.50;;;;;;;-5.64;65.94;95139.28;5078493;28;20126;-85
2024/01/12 01:48:05;;;;;;;31.90;13.52;;;;;;;-6.74;66.54;94978.06;5077620;28;20032;-83
2024/01/12 01:50:31;;;;;;;36.78;15.13;;;;;;;-5.06;67.58;95233.44;5098538;28;20039;-83
2024/01/12 01:52:57;;;;;;;34.75;13.98;;;;;;;-6.11;67.41;95084.50;5084233;28;20030;-83
2024/01/12 01:55:23;;;;;;;31.20;14.18;;;;;;;-5.55;67.50;95169.22;5090448;28;20414;-83
2024/01/12 01:57:50;;;;;;;32.38;13.70;;;;;;;-5.15;67.59;95237.06;5080713;28;20046;-84
2024/01/12 02:00:17;;;;;;;31.98;14.98;;;;;;;-6.03;67.51;95095.59;5090572;28;20336;-83
2024/01/12 02:02:43;;;;;;;35.00;14.80;;;;;;;-5.99;67.59;95094.25;5091611;28;20482;-83
2024/01/12 02:05:10;;;;;;;37.95;15.13;;;;;;;-5.73;67.71;95130.00;5092906;28;20122;-83
2024/01/12 02:07:39;;;;;;;37.15;15.55;;;;;;;-5.59;67.94;95142.16;5117679;28;20463;-87
2024/01/12 02:10:06;;;;;;;36.25;14.68;;;;;;;-6.26;67.05;95054.28;5081668;28;20032;-87
2024/01/12 02:12:34;;;;;;;36.15;15.77;;;;;;;-5.19;67.79;95222.91;5097876;28;20023;-87
2024/01/12 02:15:00;;;;;;;35.58;15.32;;;;;;;-5.33;68.11;95183.09;5090428;28;20051;-87
2024/01/12 02:17:26;;;;;;;36.45;15.90;;;;;;;-6.96;67.55;94923.91;5094683;28;20052;-87
2024/01/12 02:19:59;;;;;;;35.58;15.77;;;;;;;-5.84;67.56;95099.41;5092845;28;20114;-87
2024/01/12 02:22:25;;;;;;;34.80;15.02;;;;;;;-5.58;66.60;95133.44;5104721;28;20032;-87
2024/01/12 02:24:51;;;;;;;33.00;15.15;;;;;;;-6.36;65.97;95002.09;5115245;28;20022;-87
2024/01/12 02:27:17;;;;;;;27.63;13.77;;;;;;;-4.98;66.59;95219.63;5115175;28;20035;-87
2024/01/12 02:29:43;;;;;;;36.83;14.88;;;;;;;-6.03;65.79;95038.78;5105388;28;20028;-88
2024/01/12 02:32:08;;;;;;;30.33;13.70;;;;;;;-5.01;65.17;95210.41;5102683;28;20051;-85
2024/01/12 02:34:34;;;;;;;31.23;12.50;;;;;;;-5.00;64.79;95219.78;5108150;28;20024;-88
2024/01/12 02:36:59;;;;;;;28.70;14.10;;;;;;;-5.69;64.71;95125.28;5109483;28;20019;-87
2024/01/12 02:39:25;;;;;;;35.13;14.10;;;;;;;-6.01;64.92;95054.88;5127385;27;20036;-87
2024/01/12 02:41:50;;;;;;;26.45;12.15;;;;;;;-5.51;64.86;95141.28;5122403;28;20027;-86
2024/01/12 02:44:16;;;;;;;34.20;13.60;;;;;;;-5.93;64.69;95090.16;5117539;28;20138;-86
2024/01/12 02:46:41;;;;;;;29.70;13.55;;;;;;;-5.31;64.72;95170.78;5114577;28;20035;-87
2024/01/12 02:49:08;;;;;;;33.70;13.68;;;;;;;-6.25;64.67;95004.25;5121879;27;20732;-87
2024/01/12 02:51:34;;;;;;;33.83;13.25;;;;;;;-5.49;65.33;95149.63;5110883;28;20042;-88
2024/01/12 02:53:59;;;;;;;26.55;12.73;;;;;;;-5.12;64.88;95214.25;5105525;28;20024;-88
2024/01/12 02:56:25;;;;;;;27.55;11.65;;;;;;;-5.09;64.22;95200.97;5100837;28;20158;-85
2024/01/12 02:58:51;;;;;;;35.10;13.65;;;;;;;-4.83;64.92;95233.38;5100143;28;20070;-89
2024/01/12 03:01:20;;;;;;;31.80;13.45;;;;;;;-5.89;64.72;95084.47;5087359;28;20136;-86
2024/01/12 03:03:45;;;;;;;27.08;12.38;;;;;;;-6.80;64.13;94928.94;5102656;28;20035;-87
2024/01/12 03:06:11;;;;;;;39.05;14.82;;;;;;;-5.90;64.78;95077.72;5087448;28;20043;-87
2024/01/12 03:08:36;;;;;;;37.85;15.30;;;;;;;-4.96;65.30;95226.22;5113029;28;20031;-87
2024/01/12 03:11:02;;;;;;;36.55;14.88;;;;;;;-7.00;65.96;94902.81;5112702;28;20036;-87
2024/01/12 03:13:28;;;;;;;35.30;14.65;;;;;;;-6.40;65.56;94992.28;5114515;28;20035;-87
2024/01/12 03:15:53;;;;;;;36.85;15.10;;;;;;;-7.49;66.12;94813.00;5103067;28;20095;-87
2024/01/12 03:18:19;;;;;;;37.22;14.95;;;;;;;-5.69;66.03;95099.44;5103817;28;20031;-87
2024/01/12 03:20:45;;;;;;;43.70;15.43;;;;;;;-5.51;66.62;95141.28;5102836;28;20577;-86
2024/01/12 03:23:11;;;;;;;34.20;13.75;;;;;;;-6.30;67.21;95019.47;5104498;28;20027;-86
2024/01/12 03:25:36;;;;;;;32.83;13.80;;;;;;;-5.29;66.21;95186.94;5102085;28;20457;-87
2024/01/12 03:28:02;;;;;;;33.00;15.02;;;;;;;-5.54;66.51;95147.59;5102513;28;20047;-88
2024/01/12 03:30:27;;;;;;;30.10;13.43;;;;;;;-5.93;65.98;95077.25;5100670;28;20103;-87
2024/01/12 03:32:53;;;;;;;34.58;13.80;;;;;;;-6.38;65.67;95004.06;5101124;28;20031;-86
2024/01/12 03:35:18;;;;;;;34.65;13.82;;;;;;;-5.94;66.32;95083.38;5103225;28;20032;-87
2024/01/12 03:37:45;;;;;;;33.53;13.73;;;;;;;-5.39;66.17;95162.31;5093649;28;20028;-82
2024/01/12 03:40:11;;;;;;;31.45;14.05;;;;;;;-5.27;65.57;95176.44;5094282;28;20043;-83
2024/01/12 03:42:37;;;;;;;32.85;14.77;;;;;;;-7.02;65.71;94872.06;5092976;28;20044;-82
2024/01/12 03:45:03;;;;;;;30.20;14.25;;;;;;;-6.31;65.69;94974.00;5092805;28;20085;-83
2024/01/12 03:47:28;;;;;;;29.90;13.13;;;;;;;-5.46;64.74;95106.16;5093646;28;20088;-83
2024/01/12 03:49:54;;;;;;;44.05;14.23;;;;;;;-6.98;65.04;94882.84;5100056;28;20024;-84
2024/01/12 03:52:19;;;;;;;31.75;14.60;;;;;;;-5.10;65.54;95188.19;5095943;28;20045;-82
2024/01/12 03:54:45;;;;;;;34.78;15.27;;;;;;;-4.89;65.75;95211.63;5093677;28;20032;-82
2024/01/12 03:57:10;;;;;;;32.00;14.40;;;;;;;-5.11;65.61;95192.56;5095704;28;20027;-83
2024/01/12 03:59:36;;;;;;;33.72;13.77;;;;;;;-5.71;65.18;95089.28;5092227;28;20039;-83
2024/01/12 04:02:01;;;;;;;37.22;14.88;;;;;;;-4.92;65.82;95213.72;5093794;28;20024;-84
2024/01/12 04:04:27;;;;;;;30.77;14.32;;;;;;;-5.96;65.72;95051.78;5096129;28;20542;-83
2024/01/12 04:06:53;;;;;;;36.58;13.82;;;;;;;-5.34;65.27;95132.38;5090959;28;20028;-84
2024/01/12 04:09:18;;;;;;;34.95;14.98;;;;;;;-5.53;65.52;95107.03;5094107;28;20043;-83
2024/01/12 04:11:44;;;;;;;33.50;14.88;;;;;;;-6.04;65.82;95033.78;5099298;28;20083;-86
2024/01/12 04:14:09;;;;;;;38.03;16.27;;;;;;;-5.15;66.78;95188.75;5102582;28;20024;-87
2024/01/12 04:16:35;;;;;;;34.33;15.38;;;;;;;-5.18;67.07;95178.75;5122276;28;20055;-88
2024/01/12 04:19:00;;;;;;;45.83;16.65;;;;;;;-5.96;67.11;95056.94;5101403;28;20031;-87
2024/01/12 04:21:26;;;;;;;38.55;15.48;;;;;;;-5.04;66.55;95184.94;5105625;28;20028;-87
2024/01/12 04:23:52;;;;;;;35.70;15.27;;;;;;;-5.40;67.33;95122.75;5100498;28;20043;-87
2024/01/12 04:26:17;;;;;;;33.72;15.02;;;;;;;-5.65;67.36;95082.63;5103306;28;20043;-88
2024/01/12 04:28:43;;;;;;;38.35;17.20;;;;;;;-4.94;67.54;95203.56;5102883;28;20046;-87
2024/01/12 04:31:09;;;;;;;33.70;16.55;;;;;;;-5.07;67.61;95187.88;5121524;28;20043;-87
2024/01/12 04:33:34;;;;;;;36.95;16.75;;;;;;;-6.63;67.72;94953.63;5104467;28;20038;-86
2024/01/12 04:36:00;;;;;;;32.75;16.45;;;;;;;-5.04;67.27;95208.22;5105202;28;20028;-86
2024/01/12 04:38:27;;;;;;;33.55;15.07;;;;;;;-5.78;66.86;95090.16;5123118;28;20545;-86
2024/01/12 04:40:53;;;;;;;35.38;16.50;;;;;;;-5.03;68.23;95211.59;5105262;28;20028;-88
2024/01/12 04:43:19;;;;;;;51.05;18.15;;;;;;;-5.36;67.58;95144.69;5122687;28;20032;-87
2024/01/12 04:45:45;;;;;;;39.40;16.20;;;;;;;-5.11;67.67;95197.75;5098748;28;20039;-88
2024/01/12 04:48:11;;;;;;;38.00;17.40;;;;;;;-5.17;67.63;95187.31;5122267;28;20031;-86
2024/01/12 04:50:37;;;;;;;38.67;16.25;;;;;;;-5.57;68.00;95124.66;5098402;28;20191;-82
2024/01/12 04:53:02;;;;;;;44.42;16.63;;;;;;;-5.48;67.77;95140.91;5096840;28;20036;-82
2024/01/12 04:55:28;;;;;;;43.58;16.60;;;;;;;-5.51;67.62;95133.53;5098705;28;20047;-86
2024/01/12 04:57:54;;;;;;;37.17;14.55;;;;;;;-5.53;67.54;95144.03;5131498;28;20112;-88
2024/01/12 05:00:20;;;;;;;48.25;15.27;;;;;;;-6.41;66.86;94985.56;5107033;28;20032;-88
2024/01/12 05:02:45;;;;;;;35.17;16.13;;;;;;;-6.47;67.09;94968.16;5103915;28;20032;-88
2024/01/12 05:05:11;;;;;;;37.70;16.83;;;;;;;-5.26;67.53;95178.00;5105495;28;20061;-88
2024/01/12 05:07:37;;;;;;;36.95;15.68;;;;;;;-5.71;67.18;95129.81;5116142;28;20093;-82
2024/01/12 05:10:04;;;;;;;38.88;16.75;;;;;;;-6.10;67.44;95060.31;5087837;28;20040;-83
2024/01/12 05:12:29;;;;;;;39.55;16.50;;;;;;;-5.36;67.40;95175.69;5086397;28;20040;-83
2024/01/12 05:14:55;;;;;;;41.17;16.38;;;;;;;-5.30;67.43;95200.03;5102343;28;20044;-83
2024/01/12 05:17:22;;;;;;;37.95;15.98;;;;;;;-5.28;66.67;95211.00;5093163;28;20038;-83
2024/01/12 05:19:48;;;;;;;36.38;15.05;;;;;;;-5.26;67.10;95224.53;5106616;28;20526;-84
2024/01/12 05:22:14;;;;;;;37.65;16.35;;;;;;;-7.56;66.83;94861.03;5091426;28;20108;-84
2024/01/12 05:24:40;;;;;;;45.92;15.73;;;;;;;-5.17;66.65;95239.00;5089149;28;20101;-83
2024/01/12 05:27:05;;;;;;;35.50;15.68;;;;;;;-5.23;66.41;95250.88;5108186;28;20036;-84
2024/01/12 05:29:31;;;;;;;42.45;15.60;;;;;;;-7.02;66.80;94966.66;5092935;28;20054;-87
2024/01/12 05:31:56;;;;;;;44.00;17.27;;;;;;;-5.71;66.95;95179.69;5096578;28;20036;-85
2024/01/12 05:34:22;;;;;;;53.03;16.17;;;;;;;-6.60;67.10;95045.34;5091530;28;20032;-88
2024/01/12 05:36:47;;;;;;;44.97;16.55;;;;;;;-5.43;68.05;95229.06;5071976;28;20032;-87
2024/01/12 05:39:15;;;;;;;44.97;18.90;;;;;;;-5.20;68.31;95270.41;5076380;28;20101;-88
2024/01/12 05:41:40;;;;;;;51.55;17.65;;;;;;;-6.11;67.96;95126.63;5078518;28;20328;-87
2024/01/12 05:44:06;;;;;;;44.85;17.27;;;;;;;-5.82;67.93;95162.03;5074020;28;20419;-86
2024/01/12 05:46:31;;;;;;;42.53;16.10;;;;;;;-5.71;67.52;95173.72;5065466;28;20356;-85
2024/01/12 05:48:58;;;;;;;42.25;17.52;;;;;;;-5.36;67.32;95229.19;5065411;28;20228;-87
2024/01/12 05:51:24;;;;;;;44.47;17.42;;;;;;;-5.79;67.35;95166.03;5093367;28;20473;-87
2024/01/12 05:53:50;;;;;;;45.85;17.83;;;;;;;-6.24;67.44;95121.19;5078693;28;20035;-87
2024/01/12 05:56:15;;;;;;;44.00;18.08;;;;;;;-5.50;67.36;95223.81;5084442;28;20081;-87
2024/01/12 05:58:41;;;;;;;39.95;17.55;;;;;;;-5.38;67.13;95238.88;5100985;28;20089;-88
2024/01/12 06:01:07;;;;;;;45.28;16.15;;;;;;;-5.65;67.03;95206.63;5097398;28;20034;-88
2024/01/12 06:03:32;;;;;;;39.15;16.58;;;;;;;-7.77;66.14;94873.66;5075492;28;20035;-88
2024/01/12 06:11:06;;;;;;;35.97;14.93;;;;;;;-5.18;64.84;95260.69;5033841;28;20048;-82
2024/01/12 06:13:32;;;;;;;49.25;18.17;;;;;;;-5.47;66.22;95213.09;5012277;28;20029;-83
2024/01/12 06:15:58;;;;;;;47.55;17.63;;;;;;;-5.14;66.29;95274.88;5019459;28;20029;-83
2024/01/12 06:18:24;;;;;;;42.42;17.27;;;;;;;-5.71;65.53;95205.53;5027182;28;20327;-81
2024/01/12 06:20:49;;;;;;;37.60;16.52;;;;;;;-5.36;65.81;95273.13;5044352;28;20025;-82
2024/01/12 06:23:15;;;;;;;48.15;17.08;;;;;;;-5.36;66.16;95271.34;5007983;28;20511;-84
2024/01/12 06:25:41;;;;;;;39.78;15.15;;;;;;;-5.50;65.73;95279.84;5036192;28;20032;-84
2024/01/12 06:28:07;;;;;;;36.40;16.33;;;;;;;-6.05;65.43;95187.88;5022747;28;20024;-83
2024/01/12 06:30:32;;;;;;;35.63;14.68;;;;;;;-5.66;66.02;95238.63;5027002;28;20088;-85
2024/01/12 06:32:59;;;;;;;38.25;15.52;;;;;;;-5.55;65.80;95251.91;5047298;28;20117;-83
2024/01/12 06:35:25;;;;;;;37.10;15.30;;;;;;;-5.74;65.73;95205.88;5032637;28;20457;-83
2024/01/12 06:37:51;;;;;;;42.22;16.50;;;;;;;-6.00;65.74;95153.78;5037281;28;20037;-84
2024/01/12 06:40:17;;;;;;;35.10;15.73;;;;;;;-5.86;65.71;95181.41;5047466;28;20033;-83
2024/01/12 06:42:42;;;;;;;36.22;15.73;;;;;;;-5.39;65.96;95257.94;5048558;28;20025;-81
2024/01/12 06:45:09;;;;;;;55.38;18.13;;;;;;;-5.67;65.01;95211.97;5047637;28;20121;-83
2024/01/12 06:47:35;;;;;;;40.10;17.30;;;;;;;-5.54;64.75;95230.28;5029259;28;20039;-83
2024/01/12 06:50:01;;;;;;;45.05;18.17;;;;;;;-5.13;64.84;95286.84;5027613;28;20025;-83
2024/01/12 06:52:27;;;;;;;42.08;16.42;;;;;;;-5.12;63.99;95303.97;5030762;28;20032;-84
2024/01/12 06:54:52;;;;;;;36.40;15.90;;;;;;;-6.17;64.99;95134.22;5021223;28;20056;-83
2024/01/12 06:57:18;;;;;;;46.30;15.10;;;;;;;-5.17;64.80;95281.19;5044261;28;20069;-84
2024/01/12 06:59:44;;;;;;;46.78;15.88;;;;;;;-5.85;65.12;95189.00;5025023;28;20050;-84
2024/01/12 07:02:10;;;;;;;42.65;16.42;;;;;;;-5.48;65.13;95275.28;5030341;28;20040;-85
2024/01/12 07:04:36;;;;;;;35.05;14.07;;;;;;;-6.93;65.58;95047.28;5034666;28;20040;-84
2024/01/12 07:07:02;;;;;;;41.72;14.10;;;;;;;-7.37;65.02;94962.00;5021301;28;20099;-83
2024/01/12 07:09:27;;;;;;;45.05;15.32;;;;;;;-5.23;65.08;95300.00;5019463;28;20056;-86
2024/01/12 07:11:57;;;;;;;33.58;15.35;;;;;;;-6.99;65.72;95077.13;5040407;28;20138;-84
2024/01/12 07:14:23;;;;;;;33.90;14.20;;;;;;;-5.29;65.92;95320.56;5021705;28;20670;-85
2024/01/12 07:16:48;;;;;;;40.90;15.93;;;;;;;-6.03;66.06;95195.47;5038382;28;20127;-84
2024/01/12 07:19:14;;;;;;;46.72;15.88;;;;;;;-5.40;66.62;95310.59;5023236;28;20544;-83
2024/01/12 07:21:40;;;;;;;41.25;13.18;;;;;;;-5.36;66.53;95309.31;5023808;28;20536;-86
2024/01/12 07:24:05;;;;;;;32.55;14.35;;;;;;;-5.71;66.61;95280.44;5027556;28;20041;-85
2024/01/12 07:26:31;;;;;;;45.38;15.65;;;;;;;-7.18;67.08;95047.44;5023069;28;20191;-85
2024/01/12 07:28:58;;;;;;;43.47;13.82;;;;;;;-6.38;66.78;95176.13;5025849;28;20567;-86
2024/01/12 07:31:24;;;;;;;39.13;14.60;;;;;;;-6.78;66.33;95103.13;5021837;28;20041;-86
2024/01/12 07:33:49;;;;;;;39.70;15.02;;;;;;;-6.93;66.83;95096.28;5043100;28;20025;-84
2024/01/12 07:36:15;;;;;;;34.83;14.23;;;;;;;-5.36;67.12;95361.81;5026251;28;21283;-85
2024/01/12 07:38:40;;;;;;;43.88;14.10;;;;;;;-5.85;66.81;95248.41;5026707;28;20084;-84
2024/01/12 07:41:06;;;;;;;46.53;17.42;;;;;;;-7.31;66.42;95046.34;5045945;28;20444;-85
2024/01/12 07:43:32;;;;;;;46.50;15.68;;;;;;;-6.39;67.02;95139.19;5023295;28;20131;-83
2024/01/12 07:45:59;;;;;;;46.33;16.95;;;;;;;-5.00;67.30;95415.53;5024534;28;20056;-83
2024/01/12 07:48:29;;;;;;;47.13;16.27;;;;;;;-7.98;66.73;94950.66;5044467;28;20028;-84
2024/01/12 07:50:57;;;;;;;45.67;15.45;;;;;;;-5.12;67.67;95356.47;5044492;28;20059;-85
2024/01/12 07:53:23;;;;;;;52.72;16.42;;;;;;;-7.33;68.16;95031.06;5045315;28;20039;-81
2024/01/12 07:55:52;;;;;;;43.15;16.83;;;;;;;-6.74;67.93;95090.72;5029628;28;20028;-81
2024/01/12 07:58:20;;;;;;;51.83;16.80;;;;;;;-6.85;67.72;95085.94;5029057;28;20111;-83
2024/01/12 08:00:46;;;;;;;56.63;16.60;;;;;;;-5.00;68.06;95366.41;5028722;28;20512;-81
2024/01/12 08:03:11;;;;;;;47.22;15.82;;;;;;;-7.19;67.50;95056.13;5023421;28;20064;-81
2024/01/12 08:05:37;;;;;;;66.68;19.63;;;;;;;-5.12;68.58;95377.16;5025630;28;20029;-82
2024/01/12 08:08:03;;;;;;;48.83;18.38;;;;;;;-8.52;68.65;94829.63;5026422;28;20033;-81
2024/01/12 08:10:30;;;;;;;44.97;17.05;;;;;;;-9.33;68.38;94759.63;5045228;28;20122;-84
2024/01/12 08:12:56;;;;;;;50.28;16.38;;;;;;;-5.77;68.85;95283.72;5011345;28;20040;-84
2024/01/12 08:15:21;;;;;;;46.88;17.63;;;;;;;-7.21;68.64;95062.41;5013648;28;20067;-83
2024/01/12 08:17:47;;;;;;;41.75;16.50;;;;;;;-5.78;69.08;95300.19;5000866;28;20028;-84
2024/01/12 08:20:18;;;;;;;49.75;18.05;;;;;;;-8.04;68.90;94948.75;5014486;28;20509;-83
2024/01/12 08:22:44;;;;;;;53.65;17.77;;;;;;;-7.04;69.44;95057.03;5019216;28;20280;-86
2024/01/12 08:25:34;;;;;;;53.88;18.90;;;;;;;-6.40;69.69;95212.41;5046978;28;20041;-85
2024/01/12 08:28:03;;;;;;;50.47;18.35;;;;;;;-9.04;69.86;94775.28;5017270;28;20500;-85
2024/01/12 08:30:48;;;;;;;53.90;18.75;;;;;;;-7.29;70.14;95059.88;5033077;28;20028;-86
2024/01/12 08:33:17;;;;;;;55.35;19.63;;;;;;;-6.98;70.57;95101.94;5030900;28;20505;-83
2024/01/12 08:35:43;;;;;;;46.78;17.27;;;;;;;-8.29;69.73;94925.66;5029985;28;20032;-84
2024/01/12 08:38:11;;;;;;;54.00;19.77;;;;;;;-9.01;70.21;94813.53;5057929;28;20083;-85
2024/01/12 08:40:37;;;;;;;52.03;19.25;;;;;;;-6.27;71.34;95211.91;5056054;28;20489;-84
2024/01/12 08:43:13;;;;;;;49.75;20.25;;;;;;;-6.28;71.98;95220.59;5034857;28;20053;-86
2024/01/12 08:45:39;;;;;;;57.67;19.25;;;;;;;-7.24;71.66;95098.81;5041527;28;20112;-86
2024/01/12 08:48:08;;;;;;;51.90;21.08;;;;;;;-5.08;72.11;95444.84;5039988;28;20063;-85
2024/01/12 08:50:34;;;;;;;57.58;21.27;;;;;;;-7.17;72.58;95084.31;5056187;28;20079;-87
2024/01/12 08:52:59;;;;;;;55.25;20.38;;;;;;;-6.44;72.68;95198.25;5045685;28;20037;-84
2024/01/12 08:55:28;;;;;;;56.10;20.52;;;;;;;-6.59;72.16;95233.47;5050136;28;20128;-87
2024/01/12 08:57:53;;;;;;;54.78;19.20;;;;;;;-6.66;72.47;95158.53;5076079;28;20511;-87
2024/01/12 09:00:19;;;;;;;59.00;19.67;;;;;;;-4.94;72.68;95407.09;5042813;28;20033;-87
2024/01/12 09:02:45;;;;;;;56.75;20.83;;;;;;;-6.22;72.25;95252.69;5043528;28;20037;-87
2024/01/12 09:05:11;;;;;;;58.60;20.58;;;;;;;-5.28;72.07;95392.78;5047436;28;20120;-87
2024/01/12 09:07:37;;;;;;;56.13;21.23;;;;;;;-6.09;72.43;95253.72;5049309;28;20060;-86
2024/01/12 09:10:03;;;;;;;57.92;23.30;;;;;;;-5.70;72.33;95307.09;5050244;28;20049;-86
2024/01/12 09:12:29;;;;;;;54.97;19.23;;;;;;;-4.86;73.15;95444.06;5045854;28;20036;-87
2024/01/12 09:14:55;;;;;;;69.38;20.77;;;;;;;-4.86;73.44;95432.91;5035316;28;20128;-85
2024/01/12 09:17:20;;;;;;;54.17;18.40;;;;;;;-4.82;72.60;95445.34;5073793;22;20151;-88
2024/01/12 09:19:46;;;;;;;52.83;19.90;;;;;;;-5.88;72.62;95266.88;5064779;28;20043;-87
2024/01/12 09:22:12;;;;;;;62.90;21.63;;;;;;;-5.29;72.72;95344.63;5046583;28;20036;-87
2024/01/12 09:24:37;;;;;;;60.42;21.67;;;;;;;-4.73;72.81;95433.94;5051074;28;20037;-88
2024/01/12 09:27:03;;;;;;;63.92;22.67;;;;;;;-5.16;73.12;95370.72;5046933;28;20440;-88
2024/01/12 09:29:29;;;;;;;53.53;19.88;;;;;;;-7.12;72.70;95051.91;5055843;28;20036;-87
2024/01/12 09:31:56;;;;;;;68.93;22.73;;;;;;;-6.19;72.49;95216.22;5049459;28;20068;-89
2024/01/12 09:34:22;;;;;;;58.85;20.67;;;;;;;-6.85;72.80;95088.50;5064898;28;20040;-88
2024/01/12 09:36:47;;;;;;;65.07;21.30;;;;;;;-4.67;72.28;95414.34;5060459;28;20036;-88
2024/01/12 09:39:14;;;;;;;52.75;21.08;;;;;;;-5.16;72.90;95319.00;5046673;28;20093;-89
2024/01/12 09:41:48;;;;;;;56.08;21.17;;;;;;;-4.56;72.96;95395.00;5061480;28;20048;-89
2024/01/12 09:44:20;;;;;;;60.92;22.73;;;;;;;-4.86;72.94;95316.50;5045402;28;20101;-89
2024/01/12 09:46:59;;;;;;;71.20;23.10;;;;;;;-4.42;73.19;95420.09;5052582;28;20067;-87
2024/01/12 09:49:31;;;;;;;61.75;23.77;;;;;;;-6.10;73.11;95143.69;5066088;22;20087;-87
2024/01/12 09:52:09;;;;;;;61.55;21.60;;;;;;;-4.59;72.97;95369.47;5040102;28;20045;-88
2024/01/12 09:54:41;;;;;;;58.83;20.88;;;;;;;-6.69;72.06;95049.75;5034381;28;20715;-91
2024/01/12 09:57:11;;;;;;;62.03;21.88;;;;;;;-7.17;72.28;94963.19;5041574;28;20032;-93
2024/01/12 09:59:38;;;;;;;67.30;22.37;;;;;;;-5.05;72.55;95281.59;5035647;28;20104;-90
2024/01/12 10:02:14;;;;;;;65.85;22.52;;;;;;;-4.20;71.93;95434.81;5039851;28;20144;-90
2024/01/12 10:05:00;;;;;;;63.75;22.42;;;;;;;-4.99;72.71;95304.16;5043878;28;20758;-90
2024/01/12 10:07:26;;;;;;;68.38;23.23;;;;;;;-7.25;72.91;94915.09;5056702;28;20042;-89
2024/01/12 10:09:53;;;;;;;71.32;24.80;;;;;;;-5.22;72.03;95207.72;5057561;28;20048;-90
2024/01/12 10:12:18;;;;;;;64.68;23.70;;;;;;;-9.27;71.23;94548.38;5037828;28;20043;-89
2024/01/12 10:14:44;;;;;;;70.10;23.05;;;;;;;-6.10;71.58;95084.31;5039117;28;20266;-89
2024/01/12 10:17:11;;;;;;;60.65;21.48;;;;;;;-4.59;71.39;95282.28;5043175;28;20044;-90
2024/01/12 10:19:37;;;;;;;61.05;21.38;;;;;;;-7.28;71.34;94851.00;5044103;28;20057;-90
2024/01/12 10:22:03;;;;;;;58.60;22.17;;;;;;;-4.61;71.17;95284.25;5057944;28;20498;-91
2024/01/12 10:24:30;;;;;;;67.68;21.65;;;;;;;-5.62;70.41;95075.31;5027530;28;20033;-90
2024/01/12 10:27:02;;;;;;;68.38;22.08;;;;;;;-3.05;69.04;95406.59;5050227;28;20077;-91
2024/01/12 10:29:28;;;;;;;55.58;22.35;;;;;;;-7.48;67.11;94703.84;5053201;28;20101;-90
2024/01/12 10:32:05;;;;;;;69.78;25.35;;;;;;;-5.57;66.41;94990.31;5045689;28;20079;-89
2024/01/12 10:34:35;;;;;;;59.60;20.98;;;;;;;-3.28;66.67;95264.88;5051255;28;20029;-89
2024/01/12 10:37:02;;;;;;;56.97;21.83;;;;;;;-2.86;65.27;95232.09;5059823;28;20037;-87
2024/01/12 10:39:48;;;;;;;69.85;24.08;;;;;;;-1.18;63.78;95426.53;5031508;28;20270;-88
2024/01/12 10:42:16;;;;;;;65.10;22.42;;;;;;;-0.95;63.27;95425.41;5025091;28;20029;-87
2024/01/12 10:44:43;;;;;;;57.78;20.95;;;;;;;-1.01;61.26;95407.97;5022085;28;20056;-87
2024/01/12 10:47:20;;;;;;;53.80;20.48;;;;;;;-1.17;61.83;95390.88;5039721;28;20090;-88
2024/01/12 10:49:53;;;;;;;61.95;20.85;;;;;;;-0.80;62.54;95408.59;5059977;28;20057;-86
2024/01/12 10:52:31;;;;;;;52.05;21.20;;;;;;;-0.76;62.50;95406.41;5058275;28;20037;-86
2024/01/12 10:55:04;;;;;;;73.68;22.30;;;;;;;-0.54;61.69;95394.03;5055211;28;20053;-86
2024/01/12 10:57:30;;;;;;;63.65;22.00;;;;;;;-0.84;61.51;95339.69;5053928;28;20104;-85
2024/01/12 10:59:56;;;;;;;58.60;21.17;;;;;;;-1.70;61.87;95270.25;5049771;28;20047;-85
2024/01/12 11:02:22;;;;;;;63.70;21.38;;;;;;;-1.68;61.47;95289.84;5043899;28;20131;-85
2024/01/12 11:04:48;;;;;;;56.08;21.67;;;;;;;-1.46;62.05;95347.78;5050359;28;20036;-86
2024/01/12 11:07:15;;;;;;;58.55;22.48;;;;;;;-3.52;61.58;95063.03;5042755;28;20116;-86
2024/01/12 11:09:41;;;;;;;68.75;24.25;;;;;;;-2.85;64.00;95205.16;5044243;28;20032;-86
2024/01/12 11:12:08;;;;;;;55.55;21.60;;;;;;;-2.27;64.21;95351.94;5046375;28;20522;-86
2024/01/12 11:14:36;;;;;;;62.08;21.63;;;;;;;-2.98;64.90;95192.91;5036530;28;20029;-85
2024/01/12 11:17:05;;;;;;;60.15;22.00;;;;;;;-3.84;64.07;95092.09;5061635;28;20335;-86
2024/01/12 11:19:32;;;;;;;62.70;22.42;;;;;;;-3.34;64.25;95239.69;5050730;28;20076;-86
2024/01/12 11:22:10;;;;;;;66.20;22.25;;;;;;;-3.87;65.96;95145.09;5054894;28;20043;-86
2024/01/12 11:24:51;;;;;;;59.83;23.38;;;;;;;-5.05;66.55;94942.81;5070999;28;20036;-84
2024/01/12 11:27:29;;;;;;;54.72;22.33;;;;;;;-2.52;67.12;95411.31;5041928;28;20040;-86
2024/01/12 11:29:57;;;;;;;54.88;21.35;;;;;;;-3.95;67.30;95191.84;5056269;28;20104;-85
2024/01/12 11:32:33;;;;;;;69.55;23.30;;;;;;;-5.42;67.58;95002.44;5047598;28;20061;-88
2024/01/12 11:35:13;;;;;;;58.90;22.65;;;;;;;-2.63;68.07;95436.94;5050910;28;20025;-88